sensor_id;sensor_type;location;lat;lon;timestamp;P1;durP1;ratioP1;P2;durP2;ratioP2
75496;SDS011;64074;47.540;19.072;2023-03-14T00:03:05;15.27;;;6.20;;
75496;SDS011;64074;47.540;19.072;2023-03-14T00:06:18;11.63;;;6.13;;
75496;SDS011;64074;47.540;19.072;2023-03-14T00:09:26;14.15;;;6.10;;
75496;SDS011;64074;47.540;19.072;2023-03-14T00:12:33;11.82;;;6.03;;
75496;SDS011;64074;47.540;19.072;2023-03-14T00:15:43;11.27;;;6.53;;
75496;SDS011;64074;47.540;19.072;2023-03-14T00:19:04;10.97;;;5.87;;
75496;SDS011;64074;47.540;19.072;2023-03-14T00:22:26;10.88;;;5.72;;
75496;SDS011;64074;47.540;19.072;2023-03-14T00:25:46;12.63;;;6.28;;
75496;SDS011;64074;47.540;19.072;2023-03-14T00:29:07;12.23;;;6.38;;
75496;SDS011;64074;47.540;19.072;2023-03-14T00:32:30;12.27;;;6.27;;
75496;SDS011;64074;47.540;19.072;2023-03-14T00:36:05;10.27;;;6.00;;
75496;SDS011;64074;47.540;19.072;2023-03-14T00:39:18;12.73;;;6.47;;
75496;SDS011;64074;47.540;19.072;2023-03-14T00:42:40;11.90;;;6.47;;
75496;SDS011;64074;47.540;19.072;2023-03-14T00:46:00;11.98;;;6.28;;
75496;SDS011;64074;47.540;19.072;2023-03-14T00:49:24;12.77;;;6.43;;
75496;SDS011;64074;47.540;19.072;2023-03-14T00:52:29;10.53;;;6.60;;
75496;SDS011;64074;47.540;19.072;2023-03-14T00:55:39;11.70;;;6.03;;
75496;SDS011;64074;47.540;19.072;2023-03-14T00:58:49;10.35;;;6.40;;
75496;SDS011;64074;47.540;19.072;2023-03-14T01:01:59;15.23;;;6.45;;
75496;SDS011;64074;47.540;19.072;2023-03-14T01:05:28;12.50;;;6.27;;
75496;SDS011;64074;47.540;19.072;2023-03-14T01:09:02;11.23;;;6.03;;
75496;SDS011;64074;47.540;19.072;2023-03-14T01:12:12;12.63;;;6.50;;
75496;SDS011;64074;47.540;19.072;2023-03-14T01:15:23;11.63;;;6.47;;
75496;SDS011;64074;47.540;19.072;2023-03-14T01:18:51;11.77;;;6.32;;
75496;SDS011;64074;47.540;19.072;2023-03-14T01:22:11;13.43;;;6.87;;
75496;SDS011;64074;47.540;19.072;2023-03-14T01:25:27;13.17;;;6.53;;
75496;SDS011;64074;47.540;19.072;2023-03-14T01:29:01;12.95;;;6.97;;
75496;SDS011;64074;47.540;19.072;2023-03-14T01:32:16;14.00;;;7.63;;
75496;SDS011;64074;47.540;19.072;2023-03-14T01:35:20;16.10;;;6.72;;
75496;SDS011;64074;47.540;19.072;2023-03-14T01:38:31;11.97;;;6.57;;
75496;SDS011;64074;47.540;19.072;2023-03-14T01:41:42;11.87;;;6.47;;
75496;SDS011;64074;47.540;19.072;2023-03-14T01:44:53;12.27;;;6.68;;
75496;SDS011;64074;47.540;19.072;2023-03-14T01:48:10;12.20;;;6.65;;
75496;SDS011;64074;47.540;19.072;2023-03-14T01:51:29;11.38;;;6.65;;
75496;SDS011;64074;47.540;19.072;2023-03-14T01:54:44;14.07;;;7.37;;
75496;SDS011;64074;47.540;19.072;2023-03-14T01:57:58;24.33;;;8.30;;
75496;SDS011;64074;47.540;19.072;2023-03-14T02:01:13;14.63;;;7.05;;
75496;SDS011;64074;47.540;19.072;2023-03-14T02:04:25;13.70;;;6.93;;
75496;SDS011;64074;47.540;19.072;2023-03-14T02:07:49;13.32;;;7.05;;
75496;SDS011;64074;47.540;19.072;2023-03-14T02:11:10;13.40;;;6.83;;
75496;SDS011;64074;47.540;19.072;2023-03-14T02:14:33;12.93;;;7.47;;
75496;SDS011;64074;47.540;19.072;2023-03-14T02:18:03;15.23;;;7.45;;
75496;SDS011;64074;47.540;19.072;2023-03-14T02:25:03;14.68;;;7.60;;
75496;SDS011;64074;47.540;19.072;2023-03-14T02:28:22;18.53;;;8.37;;
75496;SDS011;64074;47.540;19.072;2023-03-14T02:31:34;13.70;;;7.60;;
75496;SDS011;64074;47.540;19.072;2023-03-14T02:34:44;14.45;;;7.70;;
75496;SDS011;64074;47.540;19.072;2023-03-14T02:41:36;16.95;;;7.85;;
75496;SDS011;64074;47.540;19.072;2023-03-14T02:44:52;14.03;;;7.77;;
75496;SDS011;64074;47.540;19.072;2023-03-14T02:48:11;14.37;;;7.87;;
75496;SDS011;64074;47.540;19.072;2023-03-14T02:51:36;14.77;;;7.85;;
75496;SDS011;64074;47.540;19.072;2023-03-14T02:54:47;13.68;;;7.60;;
75496;SDS011;64074;47.540;19.072;2023-03-14T02:57:50;14.65;;;8.05;;
75496;SDS011;64074;47.540;19.072;2023-03-14T03:01:01;16.80;;;8.83;;
75496;SDS011;64074;47.540;19.072;2023-03-14T03:04:06;13.70;;;7.50;;
75496;SDS011;64074;47.540;19.072;2023-03-14T03:07:12;14.60;;;7.80;;
75496;SDS011;64074;47.540;19.072;2023-03-14T03:10:22;14.77;;;8.18;;
75496;SDS011;64074;47.540;19.072;2023-03-14T03:13:38;14.18;;;7.00;;
75496;SDS011;64074;47.540;19.072;2023-03-14T03:16:49;11.87;;;7.67;;
75496;SDS011;64074;47.540;19.072;2023-03-14T03:20:20;14.87;;;8.27;;
75496;SDS011;64074;47.540;19.072;2023-03-14T03:23:38;15.98;;;6.97;;
75496;SDS011;64074;47.540;19.072;2023-03-14T03:27:02;16.90;;;7.85;;
75496;SDS011;64074;47.540;19.072;2023-03-14T03:30:23;15.05;;;7.50;;
75496;SDS011;64074;47.540;19.072;2023-03-14T03:33:43;15.17;;;8.67;;
75496;SDS011;64074;47.540;19.072;2023-03-14T03:36:57;16.10;;;9.23;;
75496;SDS011;64074;47.540;19.072;2023-03-14T03:40:03;18.23;;;9.02;;
75496;SDS011;64074;47.540;19.072;2023-03-14T03:43:16;16.50;;;8.88;;
75496;SDS011;64074;47.540;19.072;2023-03-14T03:46:30;14.02;;;8.07;;
75496;SDS011;64074;47.540;19.072;2023-03-14T03:49:51;16.00;;;8.33;;
75496;SDS011;64074;47.540;19.072;2023-03-14T03:53:12;16.23;;;8.63;;
75496;SDS011;64074;47.540;19.072;2023-03-14T03:56:31;16.40;;;8.63;;
75496;SDS011;64074;47.540;19.072;2023-03-14T03:59:50;15.10;;;8.35;;
75496;SDS011;64074;47.540;19.072;2023-03-14T04:03:06;15.40;;;8.30;;
75496;SDS011;64074;47.540;19.072;2023-03-14T04:06:31;17.77;;;8.70;;
75496;SDS011;64074;47.540;19.072;2023-03-14T04:09:37;21.20;;;9.40;;
75496;SDS011;64074;47.540;19.072;2023-03-14T04:12:46;18.05;;;9.88;;
75496;SDS011;64074;47.540;19.072;2023-03-14T04:15:58;18.50;;;9.80;;
75496;SDS011;64074;47.540;19.072;2023-03-14T04:19:10;19.33;;;8.85;;
75496;SDS011;64074;47.540;19.072;2023-03-14T04:22:21;19.03;;;10.17;;
75496;SDS011;64074;47.540;19.072;2023-03-14T04:25:30;16.17;;;9.57;;
75496;SDS011;64074;47.540;19.072;2023-03-14T04:28:45;16.38;;;9.50;;
75496;SDS011;64074;47.540;19.072;2023-03-14T04:31:54;17.83;;;9.93;;
75496;SDS011;64074;47.540;19.072;2023-03-14T04:35:00;14.13;;;8.30;;
75496;SDS011;64074;47.540;19.072;2023-03-14T04:38:13;14.33;;;7.80;;
75496;SDS011;64074;47.540;19.072;2023-03-14T04:41:20;19.07;;;8.80;;
75496;SDS011;64074;47.540;19.072;2023-03-14T04:44:30;16.80;;;10.00;;
75496;SDS011;64074;47.540;19.072;2023-03-14T04:47:53;17.85;;;9.85;;
75496;SDS011;64074;47.540;19.072;2023-03-14T04:50:58;18.52;;;10.00;;
75496;SDS011;64074;47.540;19.072;2023-03-14T04:54:07;18.70;;;10.40;;
75496;SDS011;64074;47.540;19.072;2023-03-14T04:57:10;17.47;;;9.70;;
75496;SDS011;64074;47.540;19.072;2023-03-14T05:00:21;17.48;;;10.02;;
75496;SDS011;64074;47.540;19.072;2023-03-14T05:04:32;24.33;;;10.20;;
75496;SDS011;64074;47.540;19.072;2023-03-14T05:08:04;20.42;;;10.15;;
75496;SDS011;64074;47.540;19.072;2023-03-14T05:11:33;20.27;;;9.83;;
75496;SDS011;64074;47.540;19.072;2023-03-14T05:14:50;20.00;;;10.13;;
75496;SDS011;64074;47.540;19.072;2023-03-14T05:18:44;20.30;;;9.93;;
75496;SDS011;64074;47.540;19.072;2023-03-14T05:22:13;18.73;;;9.68;;
75496;SDS011;64074;47.540;19.072;2023-03-14T05:25:24;19.63;;;9.35;;
75496;SDS011;64074;47.540;19.072;2023-03-14T05:28:53;17.63;;;9.13;;
75496;SDS011;64074;47.540;19.072;2023-03-14T05:32:23;16.23;;;8.77;;
75496;SDS011;64074;47.540;19.072;2023-03-14T05:36:09;24.33;;;12.20;;
75496;SDS011;64074;47.540;19.072;2023-03-14T05:39:48;17.40;;;9.25;;
75496;SDS011;64074;47.540;19.072;2023-03-14T05:43:18;19.13;;;9.05;;
75496;SDS011;64074;47.540;19.072;2023-03-14T05:46:52;14.83;;;8.17;;
75496;SDS011;64074;47.540;19.072;2023-03-14T05:50:26;18.27;;;9.50;;
75496;SDS011;64074;47.540;19.072;2023-03-14T05:53:52;17.20;;;8.57;;
75496;SDS011;64074;47.540;19.072;2023-03-14T05:57:14;15.88;;;8.23;;
75496;SDS011;64074;47.540;19.072;2023-03-14T06:00:38;14.95;;;7.90;;
75496;SDS011;64074;47.540;19.072;2023-03-14T06:04:06;19.43;;;9.00;;
75496;SDS011;64074;47.540;19.072;2023-03-14T06:07:15;15.20;;;8.30;;
75496;SDS011;64074;47.540;19.072;2023-03-14T06:10:26;15.82;;;8.38;;
75496;SDS011;64074;47.540;19.072;2023-03-14T06:13:36;14.32;;;8.07;;
75496;SDS011;64074;47.540;19.072;2023-03-14T06:17:08;15.13;;;7.00;;
75496;SDS011;64074;47.540;19.072;2023-03-14T06:20:38;16.00;;;7.07;;
75496;SDS011;64074;47.540;19.072;2023-03-14T06:23:50;12.10;;;6.73;;
75496;SDS011;64074;47.540;19.072;2023-03-14T06:27:09;57.72;;;9.68;;
75496;SDS011;64074;47.540;19.072;2023-03-14T06:30:25;36.78;;;8.23;;
75496;SDS011;64074;47.540;19.072;2023-03-14T06:33:35;13.02;;;6.78;;
75496;SDS011;64074;47.540;19.072;2023-03-14T06:36:51;14.30;;;6.67;;
75496;SDS011;64074;47.540;19.072;2023-03-14T06:40:00;15.73;;;6.63;;
75496;SDS011;64074;47.540;19.072;2023-03-14T06:43:28;17.08;;;6.70;;
75496;SDS011;64074;47.540;19.072;2023-03-14T06:46:38;14.55;;;6.47;;
75496;SDS011;64074;47.540;19.072;2023-03-14T06:49:52;14.05;;;6.53;;
75496;SDS011;64074;47.540;19.072;2023-03-14T06:53:01;18.93;;;7.70;;
75496;SDS011;64074;47.540;19.072;2023-03-14T06:56:13;17.27;;;7.30;;
75496;SDS011;64074;47.540;19.072;2023-03-14T06:59:25;14.65;;;7.10;;
75496;SDS011;64074;47.540;19.072;2023-03-14T07:08:17;17.98;;;8.10;;
75496;SDS011;64074;47.540;19.072;2023-03-14T07:15:41;12.17;;;7.30;;
75496;SDS011;64074;47.540;19.072;2023-03-14T07:18:51;13.05;;;6.65;;
75496;SDS011;64074;47.540;19.072;2023-03-14T07:22:01;15.35;;;7.70;;
75496;SDS011;64074;47.540;19.072;2023-03-14T07:25:20;15.75;;;6.97;;
75496;SDS011;64074;47.540;19.072;2023-03-14T07:33:16;18.43;;;7.83;;
75496;SDS011;64074;47.540;19.072;2023-03-14T07:36:52;18.67;;;7.47;;
75496;SDS011;64074;47.540;19.072;2023-03-14T07:40:20;17.65;;;7.13;;
75496;SDS011;64074;47.540;19.072;2023-03-14T07:47:35;15.27;;;8.33;;
75496;SDS011;64074;47.540;19.072;2023-03-14T07:58:38;13.02;;;6.55;;
75496;SDS011;64074;47.540;19.072;2023-03-14T08:05:47;14.17;;;6.90;;
75496;SDS011;64074;47.540;19.072;2023-03-14T08:13:20;15.18;;;6.90;;
75496;SDS011;64074;47.540;19.072;2023-03-14T08:16:30;15.95;;;7.60;;
75496;SDS011;64074;47.540;19.072;2023-03-14T08:19:51;16.20;;;7.60;;
75496;SDS011;64074;47.540;19.072;2023-03-14T08:23:09;12.33;;;6.60;;
75496;SDS011;64074;47.540;19.072;2023-03-14T08:26:19;14.03;;;7.50;;
75496;SDS011;64074;47.540;19.072;2023-03-14T08:29:49;14.57;;;7.55;;
75496;SDS011;64074;47.540;19.072;2023-03-14T08:37:09;14.25;;;7.55;;
75496;SDS011;64074;47.540;19.072;2023-03-14T08:40:28;13.83;;;7.00;;
75496;SDS011;64074;47.540;19.072;2023-03-14T08:47:30;12.88;;;7.15;;
75496;SDS011;64074;47.540;19.072;2023-03-14T08:50:52;20.90;;;7.43;;
75496;SDS011;64074;47.540;19.072;2023-03-14T08:57:25;15.53;;;6.30;;
75496;SDS011;64074;47.540;19.072;2023-03-14T09:04:45;20.02;;;6.60;;
75496;SDS011;64074;47.540;19.072;2023-03-14T09:09:38;11.93;;;5.68;;
75496;SDS011;64074;47.540;19.072;2023-03-14T09:12:48;12.15;;;5.35;;
75496;SDS011;64074;47.540;19.072;2023-03-14T09:15:58;15.60;;;5.60;;
75496;SDS011;64074;47.540;19.072;2023-03-14T09:19:09;13.30;;;5.20;;
75496;SDS011;64074;47.540;19.072;2023-03-14T09:22:18;10.55;;;5.20;;
75496;SDS011;64074;47.540;19.072;2023-03-14T09:25:28;20.55;;;5.50;;
75496;SDS011;64074;47.540;19.072;2023-03-14T09:32:42;11.17;;;4.80;;
75496;SDS011;64074;47.540;19.072;2023-03-14T09:35:50;11.80;;;4.93;;
75496;SDS011;64074;47.540;19.072;2023-03-14T09:42:35;10.77;;;4.70;;
75496;SDS011;64074;47.540;19.072;2023-03-14T09:45:52;30.63;;;17.52;;
75496;SDS011;64074;47.540;19.072;2023-03-14T09:50:39;10.37;;;4.30;;
75496;SDS011;64074;47.540;19.072;2023-03-14T09:53:52;12.40;;;4.50;;
75496;SDS011;64074;47.540;19.072;2023-03-14T10:01:16;8.95;;;4.75;;
75496;SDS011;64074;47.540;19.072;2023-03-14T10:04:27;10.70;;;5.00;;
75496;SDS011;64074;47.540;19.072;2023-03-14T10:11:03;8.67;;;4.60;;
75496;SDS011;64074;47.540;19.072;2023-03-14T10:14:13;8.68;;;4.75;;
75496;SDS011;64074;47.540;19.072;2023-03-14T10:17:52;9.32;;;4.43;;
75496;SDS011;64074;47.540;19.072;2023-03-14T10:21:04;18.05;;;5.30;;
75496;SDS011;64074;47.540;19.072;2023-03-14T10:27:43;11.03;;;4.70;;
75496;SDS011;64074;47.540;19.072;2023-03-14T10:31:08;11.60;;;4.93;;
75496;SDS011;64074;47.540;19.072;2023-03-14T10:56:06;7.15;;;2.00;;
75496;SDS011;64074;47.540;19.072;2023-03-14T10:59:12;5.90;;;1.80;;
75496;SDS011;64074;47.540;19.072;2023-03-14T11:02:27;6.28;;;2.10;;
75496;SDS011;64074;47.540;19.072;2023-03-14T11:23:46;11.17;;;2.10;;
75496;SDS011;64074;47.540;19.072;2023-03-14T11:34:44;3.38;;;1.75;;
75496;SDS011;64074;47.540;19.072;2023-03-14T11:38:00;7.03;;;2.15;;
75496;SDS011;64074;47.540;19.072;2023-03-14T11:44:53;10.90;;;2.13;;
75496;SDS011;64074;47.540;19.072;2023-03-14T11:51:35;6.43;;;2.10;;
75496;SDS011;64074;47.540;19.072;2023-03-14T11:55:27;6.82;;;1.92;;
75496;SDS011;64074;47.540;19.072;2023-03-14T11:58:31;9.50;;;2.00;;
75496;SDS011;64074;47.540;19.072;2023-03-14T12:02:03;7.47;;;1.60;;
75496;SDS011;64074;47.540;19.072;2023-03-14T12:08:56;4.72;;;1.30;;
75496;SDS011;64074;47.540;19.072;2023-03-14T12:14:33;5.20;;;1.50;;
75496;SDS011;64074;47.540;19.072;2023-03-14T12:18:07;6.17;;;1.60;;
75496;SDS011;64074;47.540;19.072;2023-03-14T12:22:16;12.37;;;1.70;;
75496;SDS011;64074;47.540;19.072;2023-03-14T12:30:48;3.58;;;1.23;;
75496;SDS011;64074;47.540;19.072;2023-03-14T12:37:26;5.47;;;2.27;;
75496;SDS011;64074;47.540;19.072;2023-03-14T12:40:47;5.30;;;1.50;;
75496;SDS011;64074;47.540;19.072;2023-03-14T12:47:48;8.70;;;2.10;;
75496;SDS011;64074;47.540;19.072;2023-03-14T12:51:05;5.13;;;1.30;;
75496;SDS011;64074;47.540;19.072;2023-03-14T13:02:22;3.67;;;1.50;;
75496;SDS011;64074;47.540;19.072;2023-03-14T13:05:50;3.17;;;1.30;;
75496;SDS011;64074;47.540;19.072;2023-03-14T13:12:32;4.47;;;1.50;;
75496;SDS011;64074;47.540;19.072;2023-03-14T13:15:47;3.97;;;1.50;;
75496;SDS011;64074;47.540;19.072;2023-03-14T13:19:44;3.90;;;1.20;;
75496;SDS011;64074;47.540;19.072;2023-03-14T13:22:58;3.92;;;1.73;;
75496;SDS011;64074;47.540;19.072;2023-03-14T13:26:19;5.70;;;1.40;;
75496;SDS011;64074;47.540;19.072;2023-03-14T13:29:40;6.20;;;1.87;;
75496;SDS011;64074;47.540;19.072;2023-03-14T13:32:49;8.27;;;1.83;;
75496;SDS011;64074;47.540;19.072;2023-03-14T13:36:02;4.88;;;1.42;;
75496;SDS011;64074;47.540;19.072;2023-03-14T13:39:18;4.82;;;1.52;;
75496;SDS011;64074;47.540;19.072;2023-03-14T13:42:38;6.45;;;2.10;;
75496;SDS011;64074;47.540;19.072;2023-03-14T13:45:49;4.37;;;1.90;;
75496;SDS011;64074;47.540;19.072;2023-03-14T13:49:23;6.23;;;1.90;;
75496;SDS011;64074;47.540;19.072;2023-03-14T13:52:41;2.35;;;1.30;;
75496;SDS011;64074;47.540;19.072;2023-03-14T13:56:01;3.75;;;1.75;;
75496;SDS011;64074;47.540;19.072;2023-03-14T13:59:21;3.55;;;1.83;;
75496;SDS011;64074;47.540;19.072;2023-03-14T14:02:49;4.90;;;1.93;;
75496;SDS011;64074;47.540;19.072;2023-03-14T14:06:08;4.37;;;1.90;;
75496;SDS011;64074;47.540;19.072;2023-03-14T14:09:37;2.60;;;1.60;;
75496;SDS011;64074;47.540;19.072;2023-03-14T14:13:01;4.32;;;1.88;;
75496;SDS011;64074;47.540;19.072;2023-03-14T14:16:16;10.88;;;2.47;;
75496;SDS011;64074;47.540;19.072;2023-03-14T14:19:34;3.83;;;2.20;;
75496;SDS011;64074;47.540;19.072;2023-03-14T14:22:54;5.10;;;2.00;;
75496;SDS011;64074;47.540;19.072;2023-03-14T14:25:59;3.90;;;1.52;;
75496;SDS011;64074;47.540;19.072;2023-03-14T14:29:16;4.05;;;1.70;;
75496;SDS011;64074;47.540;19.072;2023-03-14T14:36:44;3.33;;;1.60;;
75496;SDS011;64074;47.540;19.072;2023-03-14T14:39:59;3.67;;;2.17;;
75496;SDS011;64074;47.540;19.072;2023-03-14T14:43:19;4.78;;;2.30;;
75496;SDS011;64074;47.540;19.072;2023-03-14T14:46:42;5.00;;;2.00;;
75496;SDS011;64074;47.540;19.072;2023-03-14T14:49:59;4.85;;;2.03;;
75496;SDS011;64074;47.540;19.072;2023-03-14T14:56:49;3.10;;;2.00;;
75496;SDS011;64074;47.540;19.072;2023-03-14T15:00:03;5.72;;;2.45;;
75496;SDS011;64074;47.540;19.072;2023-03-14T15:03:28;7.05;;;2.40;;
75496;SDS011;64074;47.540;19.072;2023-03-14T15:06:46;8.95;;;2.67;;
75496;SDS011;64074;47.540;19.072;2023-03-14T15:11:37;9.90;;;2.80;;
75496;SDS011;64074;47.540;19.072;2023-03-14T15:14:41;14.00;;;3.30;;
75496;SDS011;64074;47.540;19.072;2023-03-14T15:17:52;8.48;;;3.00;;
75496;SDS011;64074;47.540;19.072;2023-03-14T15:21:11;12.77;;;3.40;;
75496;SDS011;64074;47.540;19.072;2023-03-14T15:24:21;10.07;;;3.28;;
75496;SDS011;64074;47.540;19.072;2023-03-14T15:27:31;12.23;;;4.07;;
75496;SDS011;64074;47.540;19.072;2023-03-14T15:31:04;8.50;;;3.37;;
75496;SDS011;64074;47.540;19.072;2023-03-14T15:34:14;10.68;;;3.78;;
75496;SDS011;64074;47.540;19.072;2023-03-14T15:37:22;12.88;;;3.33;;
75496;SDS011;64074;47.540;19.072;2023-03-14T15:40:29;8.25;;;4.13;;
75496;SDS011;64074;47.540;19.072;2023-03-14T15:43:33;6.77;;;3.60;;
75496;SDS011;64074;47.540;19.072;2023-03-14T15:46:37;6.37;;;3.47;;
75496;SDS011;64074;47.540;19.072;2023-03-14T15:49:46;6.75;;;3.92;;
75496;SDS011;64074;47.540;19.072;2023-03-14T15:53:08;4.85;;;1.80;;
75496;SDS011;64074;47.540;19.072;2023-03-14T15:56:38;3.65;;;1.50;;
75496;SDS011;64074;47.540;19.072;2023-03-14T16:01:25;3.33;;;1.50;;
75496;SDS011;64074;47.540;19.072;2023-03-14T16:04:38;3.83;;;1.50;;
75496;SDS011;64074;47.540;19.072;2023-03-14T16:08:15;4.47;;;1.23;;
75496;SDS011;64074;47.540;19.072;2023-03-14T16:11:19;2.88;;;1.38;;
75496;SDS011;64074;47.540;19.072;2023-03-14T16:14:24;6.57;;;1.75;;
75496;SDS011;64074;47.540;19.072;2023-03-14T16:17:31;3.17;;;1.40;;
75496;SDS011;64074;47.540;19.072;2023-03-14T16:20:36;4.03;;;1.63;;
75496;SDS011;64074;47.540;19.072;2023-03-14T16:23:50;3.15;;;1.55;;
75496;SDS011;64074;47.540;19.072;2023-03-14T16:27:00;2.08;;;1.25;;
75496;SDS011;64074;47.540;19.072;2023-03-14T16:30:16;3.45;;;1.20;;
75496;SDS011;64074;47.540;19.072;2023-03-14T16:33:27;5.17;;;1.60;;
75496;SDS011;64074;47.540;19.072;2023-03-14T16:36:38;4.33;;;1.57;;
75496;SDS011;64074;47.540;19.072;2023-03-14T16:39:54;6.03;;;2.00;;
75496;SDS011;64074;47.540;19.072;2023-03-14T16:43:27;4.43;;;2.20;;
75496;SDS011;64074;47.540;19.072;2023-03-14T16:46:58;3.25;;;1.80;;
75496;SDS011;64074;47.540;19.072;2023-03-14T16:50:28;4.80;;;1.60;;
75496;SDS011;64074;47.540;19.072;2023-03-14T16:53:49;4.00;;;1.67;;
75496;SDS011;64074;47.540;19.072;2023-03-14T16:57:07;3.30;;;1.40;;
75496;SDS011;64074;47.540;19.072;2023-03-14T17:00:30;3.95;;;1.60;;
75496;SDS011;64074;47.540;19.072;2023-03-14T17:03:58;3.03;;;1.70;;
75496;SDS011;64074;47.540;19.072;2023-03-14T17:07:09;4.07;;;1.73;;
75496;SDS011;64074;47.540;19.072;2023-03-14T17:10:28;2.57;;;1.30;;
75496;SDS011;64074;47.540;19.072;2023-03-14T17:13:31;3.38;;;1.50;;
75496;SDS011;64074;47.540;19.072;2023-03-14T17:16:41;3.25;;;1.50;;
75496;SDS011;64074;47.540;19.072;2023-03-14T17:19:52;2.90;;;1.10;;
75496;SDS011;64074;47.540;19.072;2023-03-14T17:23:30;2.27;;;1.27;;
75496;SDS011;64074;47.540;19.072;2023-03-14T17:26:42;2.93;;;1.20;;
75496;SDS011;64074;47.540;19.072;2023-03-14T17:30:02;4.20;;;1.25;;
75496;SDS011;64074;47.540;19.072;2023-03-14T17:33:21;2.10;;;1.17;;
75496;SDS011;64074;47.540;19.072;2023-03-14T17:36:39;2.63;;;0.90;;
75496;SDS011;64074;47.540;19.072;2023-03-14T17:40:06;2.73;;;1.00;;
75496;SDS011;64074;47.540;19.072;2023-03-14T17:43:26;2.60;;;1.00;;
75496;SDS011;64074;47.540;19.072;2023-03-14T17:46:35;3.38;;;1.20;;
75496;SDS011;64074;47.540;19.072;2023-03-14T17:49:52;1.55;;;1.00;;
75496;SDS011;64074;47.540;19.072;2023-03-14T17:52:59;3.05;;;1.05;;
75496;SDS011;64074;47.540;19.072;2023-03-14T17:56:05;1.93;;;0.80;;
75496;SDS011;64074;47.540;19.072;2023-03-14T17:59:12;6.20;;;1.20;;
75496;SDS011;64074;47.540;19.072;2023-03-14T18:02:15;2.70;;;1.20;;
75496;SDS011;64074;47.540;19.072;2023-03-14T18:05:25;4.82;;;0.90;;
75496;SDS011;64074;47.540;19.072;2023-03-14T18:08:40;1.55;;;0.55;;
75496;SDS011;64074;47.540;19.072;2023-03-14T18:11:56;2.60;;;0.73;;
75496;SDS011;64074;47.540;19.072;2023-03-14T18:15:16;2.80;;;0.57;;
75496;SDS011;64074;47.540;19.072;2023-03-14T18:18:26;2.72;;;0.93;;
75496;SDS011;64074;47.540;19.072;2023-03-14T18:22:01;4.32;;;0.90;;
75496;SDS011;64074;47.540;19.072;2023-03-14T18:25:11;2.10;;;0.80;;
75496;SDS011;64074;47.540;19.072;2023-03-14T18:28:16;1.30;;;0.50;;
75496;SDS011;64074;47.540;19.072;2023-03-14T18:31:26;1.30;;;0.70;;
75496;SDS011;64074;47.540;19.072;2023-03-14T18:34:46;1.50;;;0.70;;
75496;SDS011;64074;47.540;19.072;2023-03-14T18:37:50;1.45;;;0.90;;
75496;SDS011;64074;47.540;19.072;2023-03-14T18:40:54;0.93;;;0.45;;
75496;SDS011;64074;47.540;19.072;2023-03-14T18:43:57;1.17;;;0.60;;
75496;SDS011;64074;47.540;19.072;2023-03-14T18:47:01;1.30;;;0.60;;
75496;SDS011;64074;47.540;19.072;2023-03-14T18:50:07;3.17;;;1.90;;
75496;SDS011;64074;47.540;19.072;2023-03-14T18:53:14;1.17;;;0.55;;
75496;SDS011;64074;47.540;19.072;2023-03-14T18:56:18;1.40;;;0.88;;
75496;SDS011;64074;47.540;19.072;2023-03-14T18:59:26;2.77;;;0.50;;
75496;SDS011;64074;47.540;19.072;2023-03-14T19:02:36;1.40;;;0.60;;
75496;SDS011;64074;47.540;19.072;2023-03-14T19:05:58;3.38;;;1.42;;
75496;SDS011;64074;47.540;19.072;2023-03-14T19:09:11;1.98;;;0.70;;
75496;SDS011;64074;47.540;19.072;2023-03-14T19:12:39;1.63;;;0.75;;
75496;SDS011;64074;47.540;19.072;2023-03-14T19:16:03;1.93;;;1.00;;
75496;SDS011;64074;47.540;19.072;2023-03-14T19:19:25;2.87;;;1.13;;
75496;SDS011;64074;47.540;19.072;2023-03-14T19:22:46;4.00;;;2.03;;
75496;SDS011;64074;47.540;19.072;2023-03-14T19:26:11;4.75;;;2.10;;
75496;SDS011;64074;47.540;19.072;2023-03-14T19:29:33;3.38;;;2.00;;
75496;SDS011;64074;47.540;19.072;2023-03-14T19:32:55;4.40;;;2.10;;
75496;SDS011;64074;47.540;19.072;2023-03-14T19:36:22;3.80;;;1.80;;
75496;SDS011;64074;47.540;19.072;2023-03-14T19:39:39;3.35;;;1.90;;
75496;SDS011;64074;47.540;19.072;2023-03-14T19:43:00;3.55;;;2.10;;
75496;SDS011;64074;47.540;19.072;2023-03-14T19:46:24;3.17;;;1.60;;
75496;SDS011;64074;47.540;19.072;2023-03-14T19:49:53;4.13;;;1.50;;
75496;SDS011;64074;47.540;19.072;2023-03-14T19:53:08;4.90;;;2.70;;
75496;SDS011;64074;47.540;19.072;2023-03-14T19:56:30;4.05;;;2.13;;
75496;SDS011;64074;47.540;19.072;2023-03-14T19:59:50;5.78;;;2.10;;
75496;SDS011;64074;47.540;19.072;2023-03-14T20:03:22;3.97;;;2.30;;
75496;SDS011;64074;47.540;19.072;2023-03-14T20:06:35;5.60;;;2.10;;
75496;SDS011;64074;47.540;19.072;2023-03-14T20:09:55;5.77;;;2.33;;
75496;SDS011;64074;47.540;19.072;2023-03-14T20:13:17;3.78;;;2.20;;
75496;SDS011;64074;47.540;19.072;2023-03-14T20:16:37;4.13;;;1.60;;
75496;SDS011;64074;47.540;19.072;2023-03-14T20:19:52;4.35;;;2.28;;
75496;SDS011;64074;47.540;19.072;2023-03-14T20:23:02;4.40;;;1.87;;
75496;SDS011;64074;47.540;19.072;2023-03-14T20:26:16;4.47;;;1.77;;
75496;SDS011;64074;47.540;19.072;2023-03-14T20:29:30;5.40;;;2.65;;
75496;SDS011;64074;47.540;19.072;2023-03-14T20:32:40;4.97;;;2.50;;
75496;SDS011;64074;47.540;19.072;2023-03-14T20:36:04;4.32;;;2.95;;
75496;SDS011;64074;47.540;19.072;2023-03-14T20:39:31;6.10;;;2.43;;
75496;SDS011;64074;47.540;19.072;2023-03-14T20:42:47;6.30;;;3.40;;
75496;SDS011;64074;47.540;19.072;2023-03-14T20:46:15;5.00;;;2.42;;
75496;SDS011;64074;47.540;19.072;2023-03-14T20:49:38;4.97;;;2.70;;
75496;SDS011;64074;47.540;19.072;2023-03-14T20:52:47;3.13;;;1.90;;
75496;SDS011;64074;47.540;19.072;2023-03-14T20:56:22;3.83;;;2.00;;
75496;SDS011;64074;47.540;19.072;2023-03-14T20:59:46;3.00;;;1.47;;
75496;SDS011;64074;47.540;19.072;2023-03-14T21:03:13;1.70;;;0.85;;
75496;SDS011;64074;47.540;19.072;2023-03-14T21:06:29;7.03;;;3.05;;
75496;SDS011;64074;47.540;19.072;2023-03-14T21:09:35;4.85;;;2.17;;
75496;SDS011;64074;47.540;19.072;2023-03-14T21:12:39;3.40;;;1.87;;
75496;SDS011;64074;47.540;19.072;2023-03-14T21:15:46;5.57;;;2.77;;
75496;SDS011;64074;47.540;19.072;2023-03-14T21:18:53;5.00;;;2.58;;
75496;SDS011;64074;47.540;19.072;2023-03-14T21:22:02;4.15;;;2.90;;
75496;SDS011;64074;47.540;19.072;2023-03-14T21:25:13;5.93;;;3.10;;
75496;SDS011;64074;47.540;19.072;2023-03-14T21:28:28;6.17;;;3.77;;
75496;SDS011;64074;47.540;19.072;2023-03-14T21:31:50;6.23;;;3.87;;
75496;SDS011;64074;47.540;19.072;2023-03-14T21:35:00;6.43;;;3.90;;
75496;SDS011;64074;47.540;19.072;2023-03-14T21:38:34;9.52;;;4.45;;
75496;SDS011;64074;47.540;19.072;2023-03-14T21:41:58;8.55;;;4.70;;
75496;SDS011;64074;47.540;19.072;2023-03-14T21:45:19;7.93;;;4.50;;
75496;SDS011;64074;47.540;19.072;2023-03-14T21:48:44;8.77;;;4.80;;
75496;SDS011;64074;47.540;19.072;2023-03-14T21:52:07;9.10;;;5.10;;
75496;SDS011;64074;47.540;19.072;2023-03-14T21:55:18;9.60;;;4.85;;
75496;SDS011;64074;47.540;19.072;2023-03-14T21:58:48;14.82;;;5.57;;
75496;SDS011;64074;47.540;19.072;2023-03-14T22:02:14;13.43;;;6.93;;
75496;SDS011;64074;47.540;19.072;2023-03-14T22:05:37;11.57;;;7.03;;
75496;SDS011;64074;47.540;19.072;2023-03-14T22:08:57;15.45;;;8.65;;
75496;SDS011;64074;47.540;19.072;2023-03-14T22:12:17;11.93;;;8.82;;
75496;SDS011;64074;47.540;19.072;2023-03-14T22:15:43;15.65;;;9.70;;
75496;SDS011;64074;47.540;19.072;2023-03-14T22:19:03;16.33;;;10.17;;